createdAt,value
2022-09-20T00:01:47.981Z,8.46
2022-09-20T00:04:11.866Z,8.29
2022-09-20T00:06:36.503Z,8.35
2022-09-20T00:09:01.443Z,8.41
2022-09-20T00:11:29.300Z,8.32
2022-09-20T00:13:56.264Z,8.41
2022-09-20T00:16:22.577Z,8.42
2022-09-20T00:18:49.523Z,8.29
2022-09-20T00:21:18.334Z,8.38
2022-09-20T00:23:41.873Z,8.29
2022-09-20T00:26:06.546Z,8.23
2022-09-20T00:28:33.735Z,8.21
2022-09-20T00:30:58.551Z,8.25
2022-09-20T00:33:22.369Z,8.12
2022-09-20T00:35:45.568Z,8.22
2022-09-20T00:38:10.121Z,8.21
2022-09-20T00:40:33.734Z,8.24
2022-09-20T00:42:57.305Z,8.16
2022-09-20T00:45:25.823Z,8.18
2022-09-20T00:47:55.771Z,8.20
2022-09-20T00:50:36.899Z,8.14
2022-09-20T00:53:07.026Z,8.02
2022-09-20T00:55:31.325Z,8.16
2022-09-20T00:57:55.930Z,8.14
2022-09-20T01:00:19.828Z,8.14
2022-09-20T01:02:49.521Z,8.08
2022-09-20T01:05:15.812Z,8.11
2022-09-20T01:07:40.210Z,8.13
2022-09-20T01:10:03.777Z,8.16
2022-09-20T01:12:32.058Z,8.08
2022-09-20T01:14:56.790Z,8.07
2022-09-20T01:17:22.965Z,8.11
2022-09-20T01:20:04.617Z,7.96
2022-09-20T01:22:45.550Z,8.01
2022-09-20T01:25:16.862Z,7.99
2022-09-20T01:27:45.350Z,7.98
2022-09-20T01:30:12.449Z,7.98
2022-09-20T01:32:50.912Z,7.99
2022-09-20T01:35:16.166Z,7.95
2022-09-20T01:37:56.268Z,7.99
2022-09-20T01:40:30.214Z,8.03
2022-09-20T01:43:07.810Z,8.00
2022-09-20T01:45:33.584Z,8.04
2022-09-20T01:48:11.107Z,8.08
2022-09-20T01:50:42.121Z,8.01
2022-09-20T01:53:41.715Z,7.99
2022-09-20T01:56:45.723Z,7.89
2022-09-20T01:59:46.571Z,7.93
2022-09-20T02:02:37.664Z,7.87
2022-09-20T02:05:41.458Z,7.94
2022-09-20T02:08:54.570Z,7.97
2022-09-20T02:11:20.283Z,7.97
2022-09-20T02:14:05.435Z,8.01
2022-09-20T02:16:50.319Z,7.98
2022-09-20T02:20:03.042Z,8.03
2022-09-20T02:22:42.419Z,8.11
2022-09-20T02:25:19.723Z,8.18
2022-09-20T02:27:56.950Z,8.13
2022-09-20T02:30:36.574Z,8.14
2022-09-20T02:33:33.055Z,8.22
2022-09-20T02:36:22.214Z,8.17
2022-09-20T02:39:01.345Z,8.20
2022-09-20T02:41:54.001Z,8.24
2022-09-20T02:44:38.637Z,8.20
2022-09-20T02:47:14.006Z,8.27
2022-09-20T02:49:55.004Z,8.26
2022-09-20T02:52:27.710Z,8.14
2022-09-20T02:55:00.016Z,8.02
2022-09-20T02:57:39.190Z,8.13
2022-09-20T03:00:06.827Z,8.06
2022-09-20T03:02:40.554Z,8.19
2022-09-20T03:05:18.484Z,8.13
2022-09-20T03:08:01.410Z,8.01
2022-09-20T03:10:35.590Z,8.25
2022-09-20T03:13:19.945Z,8.25
2022-09-20T03:15:59.292Z,8.23
2022-09-20T03:18:34.967Z,8.32
2022-09-20T03:21:13.586Z,8.31
2022-09-20T03:23:53.078Z,8.31
2022-09-20T03:26:33.550Z,8.21
2022-09-20T03:29:05.998Z,8.39
2022-09-20T03:31:49.096Z,8.43
2022-09-20T03:34:31.413Z,8.39
2022-09-20T03:37:15.152Z,8.45
2022-09-20T03:40:30.649Z,8.44
2022-09-20T03:42:55.338Z,8.45
2022-09-20T03:45:54.269Z,8.47
2022-09-20T03:49:13.531Z,8.52
2022-09-20T03:51:46.674Z,8.51
2022-09-20T03:55:04.153Z,8.67
2022-09-20T03:57:53.049Z,8.65
2022-09-20T04:00:25.222Z,8.61
2022-09-20T04:03:12.107Z,8.66
2022-09-20T04:05:48.298Z,8.67
2022-09-20T04:08:30.714Z,8.63
2022-09-20T04:11:07.910Z,8.83
2022-09-20T04:13:38.293Z,8.79
2022-09-20T04:16:20.226Z,8.84
2022-09-20T04:18:49.643Z,8.93
2022-09-20T04:21:23.786Z,8.85
2022-09-20T04:23:56.632Z,8.88
2022-09-20T04:26:27.858Z,8.92
2022-09-20T04:28:59.586Z,9.02
2022-09-20T04:31:38.022Z,9.12
2022-09-20T04:34:03.541Z,9.09
2022-09-20T04:36:57.738Z,8.96
2022-09-20T04:39:35.466Z,8.98
2022-09-20T04:43:09.684Z,8.99
2022-09-20T04:46:20.013Z,9.00
2022-09-20T04:49:33.733Z,8.97
2022-09-20T04:52:53.225Z,9.07
2022-09-20T04:55:47.586Z,9.00
2022-09-20T04:58:46.949Z,8.95
2022-09-20T05:02:11.506Z,9.08
2022-09-20T05:05:25.902Z,9.01
2022-09-20T05:08:45.217Z,8.97
2022-09-20T05:11:32.394Z,8.88
2022-09-20T05:14:24.777Z,8.95
2022-09-20T05:17:15.820Z,8.93
2022-09-20T05:20:14.744Z,8.88
2022-09-20T05:23:19.137Z,8.92
2022-09-20T05:26:15.024Z,8.93
2022-09-20T05:28:51.166Z,8.99
2022-09-20T05:31:25.671Z,8.96
2022-09-20T05:33:57.862Z,8.99
2022-09-20T05:36:34.542Z,9.02
2022-09-20T05:39:03.995Z,9.01
2022-09-20T05:41:37.866Z,9.17
2022-09-20T05:44:17.139Z,9.26
2022-09-20T05:46:55.967Z,9.23
2022-09-20T05:49:37.505Z,9.18
2022-09-20T05:52:34.311Z,9.40
2022-09-20T05:55:19.663Z,9.45
2022-09-20T05:58:01.402Z,9.52
2022-09-20T06:00:31.725Z,9.50
2022-09-20T06:03:07.137Z,9.63
2022-09-20T06:05:43.822Z,9.58
2022-09-20T06:08:32.307Z,9.59
2022-09-20T06:11:12.970Z,9.64
2022-09-20T06:14:03.893Z,9.70
2022-09-20T06:16:41.305Z,9.69
2022-09-20T06:19:20.416Z,9.74
2022-09-20T06:21:52.751Z,9.69
2022-09-20T06:24:35.399Z,9.67
2022-09-20T06:27:04.125Z,9.62
2022-09-20T06:29:32.290Z,9.79
2022-09-20T06:31:55.898Z,9.85
2022-09-20T06:34:20.845Z,9.52
2022-09-20T06:37:09.710Z,9.75
2022-09-20T06:40:02.254Z,9.75
2022-09-20T06:42:27.263Z,9.46
2022-09-20T06:44:50.982Z,9.71
2022-09-20T06:47:16.311Z,9.58
2022-09-20T06:49:42.443Z,9.70
2022-09-20T06:52:06.812Z,9.74
2022-09-20T06:54:30.727Z,9.67
2022-09-20T06:56:54.326Z,9.81
2022-09-20T06:59:18.085Z,9.72
2022-09-20T07:01:41.879Z,9.79
2022-09-20T07:04:06.254Z,9.74
2022-09-20T07:06:31.171Z,9.70
2022-09-20T07:08:54.704Z,9.85
2022-09-20T07:11:19.074Z,9.82
2022-09-20T07:13:42.714Z,10.17
2022-09-20T07:16:08.819Z,10.36
2022-09-20T07:18:33.620Z,10.24
2022-09-20T07:20:58.899Z,10.28
2022-09-20T07:23:24.046Z,10.56
2022-09-20T07:25:47.646Z,10.85
2022-09-20T07:28:11.189Z,10.78
2022-09-20T07:30:34.764Z,10.79
2022-09-20T07:32:58.290Z,11.06
2022-09-20T07:35:21.851Z,11.22
2022-09-20T07:37:45.722Z,11.33
2022-09-20T07:40:12.876Z,11.38
2022-09-20T07:42:36.450Z,11.22
2022-09-20T07:45:02.776Z,11.33
2022-09-20T07:47:27.982Z,11.33
2022-09-20T07:49:51.528Z,11.47
2022-09-20T07:52:15.418Z,11.57
2022-09-20T07:54:39.971Z,11.48
2022-09-20T07:57:05.764Z,11.66
2022-09-20T07:59:29.298Z,11.93
2022-09-20T08:01:52.960Z,11.86
2022-09-20T08:04:16.899Z,11.90
2022-09-20T08:06:43.466Z,11.97
2022-09-20T08:09:10.936Z,12.19
2022-09-20T08:11:36.257Z,12.24
2022-09-20T08:14:06.727Z,12.23
2022-09-20T08:16:32.796Z,12.30
2022-09-20T08:18:58.883Z,12.48
2022-09-20T08:21:22.547Z,12.51
2022-09-20T08:23:47.850Z,12.36
2022-09-20T08:26:13.726Z,12.40
2022-09-20T08:28:37.327Z,12.44
2022-09-20T08:31:09.466Z,12.45
2022-09-20T08:33:34.232Z,12.50
2022-09-20T08:35:58.102Z,12.43
2022-09-20T08:41:16.283Z,12.97
2022-09-20T08:43:45.595Z,13.30
2022-09-20T08:46:22.894Z,13.36
2022-09-20T08:48:47.174Z,13.29
2022-09-20T08:51:22.362Z,13.57
2022-09-20T08:53:50.549Z,13.82
2022-09-20T08:56:14.081Z,13.67
2022-09-20T08:58:39.031Z,13.74
2022-09-20T09:01:02.604Z,14.13
2022-09-20T09:03:29.374Z,14.18
2022-09-20T09:05:56.719Z,14.63
2022-09-20T09:08:23.809Z,14.81
2022-09-20T09:10:54.738Z,14.84
2022-09-20T09:13:26.792Z,15.59
2022-09-20T09:15:57.287Z,16.30
2022-09-20T09:18:20.934Z,16.51
2022-09-20T09:20:46.841Z,16.35
2022-09-20T09:23:25.631Z,16.76
2022-09-20T09:25:49.352Z,16.68
2022-09-20T09:28:16.329Z,17.10
2022-09-20T09:30:42.020Z,17.07
2022-09-20T09:33:35.010Z,17.13
2022-09-20T09:36:06.619Z,17.57
2022-09-20T09:38:32.151Z,16.53
2022-09-20T09:40:58.761Z,17.50
2022-09-20T09:43:27.291Z,18.17
2022-09-20T09:45:51.129Z,18.47
2022-09-20T09:48:22.556Z,17.38
2022-09-20T09:50:46.792Z,17.18
2022-09-20T09:53:16.563Z,16.64
2022-09-20T09:55:58.122Z,16.63
2022-09-20T09:58:39.170Z,17.23
2022-09-20T10:01:08.357Z,16.67
2022-09-20T10:03:48.886Z,16.70
2022-09-20T10:06:23.755Z,16.82
2022-09-20T10:09:04.766Z,17.38
2022-09-20T10:11:41.839Z,17.41
2022-09-20T10:14:25.386Z,17.95
2022-09-20T10:17:11.010Z,16.81
2022-09-20T10:19:56.934Z,17.00
2022-09-20T10:22:35.209Z,17.05
2022-09-20T10:25:13.144Z,16.25
2022-09-20T10:27:52.435Z,16.31
2022-09-20T10:30:20.172Z,16.46
2022-09-20T10:33:02.202Z,16.12
2022-09-20T10:35:33.090Z,16.65
2022-09-20T10:38:15.281Z,16.81
2022-09-20T10:41:11.638Z,16.66
2022-09-20T10:44:02.820Z,16.32
2022-09-20T10:46:44.161Z,15.77
2022-09-20T10:49:25.079Z,15.43
2022-09-20T10:52:01.794Z,15.65
2022-09-20T10:54:45.082Z,15.41
2022-09-20T10:57:49.911Z,14.65
2022-09-20T11:00:23.904Z,13.44
2022-09-20T11:03:03.580Z,13.37
2022-09-20T11:05:42.001Z,13.56
2022-09-20T11:08:13.078Z,13.04
2022-09-20T11:10:43.082Z,13.16
2022-09-20T11:13:20.206Z,13.35
2022-09-20T11:15:50.578Z,13.43
2022-09-20T11:18:23.608Z,13.27
2022-09-20T11:20:52.709Z,13.39
2022-09-20T11:23:21.089Z,13.09
2022-09-20T11:25:48.627Z,12.81
2022-09-20T11:28:20.553Z,13.08
2022-09-20T11:30:56.358Z,13.34
2022-09-20T11:33:26.632Z,13.42
2022-09-20T11:35:54.591Z,13.53
2022-09-20T11:38:24.930Z,13.44
2022-09-20T11:40:54.586Z,13.56
2022-09-20T11:43:21.175Z,13.54
2022-09-20T11:45:46.512Z,13.61
2022-09-20T11:48:18.534Z,13.53
2022-09-20T11:51:34.239Z,13.59
2022-09-20T11:54:29.158Z,13.86
2022-09-20T11:56:56.524Z,14.20
2022-09-20T11:59:35.166Z,14.22
2022-09-20T12:02:01.807Z,14.50
2022-09-20T12:04:33.906Z,14.61
2022-09-20T12:07:08.314Z,14.31
2022-09-20T12:09:36.272Z,14.62
2022-09-20T12:12:02.370Z,14.75
2022-09-20T12:14:32.329Z,14.76
2022-09-20T12:16:57.496Z,14.57
2022-09-20T12:19:40.325Z,14.69
2022-09-20T12:22:29.682Z,14.78
2022-09-20T12:26:00.555Z,14.90
2022-09-20T12:28:35.288Z,15.00
2022-09-20T12:31:41.832Z,15.19
2022-09-20T12:34:32.539Z,15.32
2022-09-20T12:37:24.148Z,15.20
2022-09-20T12:39:54.415Z,15.19
2022-09-20T12:42:31.068Z,14.63
2022-09-20T12:45:01.958Z,14.73
2022-09-20T12:47:30.636Z,14.16
2022-09-20T12:50:13.944Z,13.46
2022-09-20T12:52:57.113Z,13.22
2022-09-20T12:55:43.795Z,13.42
2022-09-20T12:58:24.265Z,13.67
2022-09-20T13:00:51.989Z,13.65
2022-09-20T13:03:32.030Z,13.74
2022-09-20T13:06:25.049Z,13.80
2022-09-20T13:08:52.771Z,13.69
2022-09-20T13:11:20.650Z,13.82
2022-09-20T13:13:49.143Z,13.81
2022-09-20T13:16:24.277Z,13.93
2022-09-20T13:18:51.715Z,13.71
2022-09-20T13:21:16.089Z,13.87
2022-09-20T13:23:50.045Z,13.65
2022-09-20T13:26:14.359Z,14.13
2022-09-20T13:28:48.262Z,14.26
2022-09-20T13:31:28.434Z,14.19
2022-09-20T13:33:53.811Z,14.26
2022-09-20T13:36:27.281Z,14.69
2022-09-20T13:38:51.155Z,14.52
2022-09-20T13:41:14.667Z,14.46
2022-09-20T13:43:41.586Z,14.79
2022-09-20T13:46:10.415Z,14.84
2022-09-20T13:48:34.135Z,15.20
2022-09-20T13:50:59.647Z,14.76
2022-09-20T13:53:42.403Z,15.31
2022-09-20T13:56:13.130Z,15.26
2022-09-20T13:58:38.339Z,15.55
2022-09-20T14:01:05.402Z,15.28
2022-09-20T14:03:31.191Z,15.15
2022-09-20T14:06:01.873Z,15.07
2022-09-20T14:08:29.154Z,15.49
2022-09-20T14:11:07.259Z,15.60
2022-09-20T14:13:32.532Z,15.63
2022-09-20T14:15:56.118Z,15.52
2022-09-20T14:18:22.466Z,15.16
2022-09-20T14:20:47.298Z,15.61
2022-09-20T14:23:23.653Z,15.73
2022-09-20T14:26:08.186Z,15.59
2022-09-20T14:28:31.754Z,15.40
2022-09-20T14:31:08.345Z,15.78
2022-09-20T14:33:32.100Z,15.30
2022-09-20T14:35:55.664Z,15.20
2022-09-20T14:38:26.035Z,15.59
2022-09-20T14:40:51.809Z,15.69
2022-09-20T14:43:27.028Z,14.70
2022-09-20T14:45:56.307Z,15.29
2022-09-20T14:48:40.618Z,15.45
2022-09-20T14:51:25.244Z,15.40
2022-09-20T14:53:52.829Z,15.12
2022-09-20T14:56:17.954Z,15.69
2022-09-20T14:59:13.975Z,14.89
2022-09-20T15:01:41.206Z,15.05
2022-09-20T15:04:11.089Z,15.47
2022-09-20T15:06:37.709Z,14.81
2022-09-20T15:09:02.833Z,14.72
2022-09-20T15:11:26.674Z,14.24
2022-09-20T15:13:50.155Z,14.13
2022-09-20T15:16:16.438Z,14.14
2022-09-20T15:18:43.860Z,14.03
2022-09-20T15:21:07.634Z,13.94
2022-09-20T15:23:31.169Z,13.69
2022-09-20T15:25:56.979Z,13.57
2022-09-20T15:28:20.662Z,13.43
2022-09-20T15:30:44.886Z,13.68
2022-09-20T15:33:08.461Z,13.52
2022-09-20T15:35:32.365Z,13.66
2022-09-20T15:37:55.870Z,13.64
2022-09-20T15:40:19.689Z,13.21
2022-09-20T15:42:45.935Z,13.58
2022-09-20T15:45:11.966Z,13.55
2022-09-20T15:47:35.606Z,13.66
2022-09-20T15:49:59.922Z,13.68
2022-09-20T15:52:25.531Z,13.62
2022-09-20T15:54:49.118Z,13.68
2022-09-20T15:57:12.630Z,13.74
2022-09-20T15:59:37.570Z,13.79
2022-09-20T16:02:01.522Z,13.89
2022-09-20T16:04:27.130Z,13.86
2022-09-20T16:06:51.431Z,13.67
2022-09-20T16:09:15.401Z,13.69
2022-09-20T16:11:39.080Z,13.57
2022-09-20T16:14:03.221Z,13.58
2022-09-20T16:16:30.305Z,13.66
2022-09-20T16:19:12.877Z,13.59
2022-09-20T16:21:37.590Z,13.57
2022-09-20T16:24:01.816Z,13.61
2022-09-20T16:26:27.810Z,13.60
2022-09-20T16:28:51.591Z,13.51
2022-09-20T16:34:09.411Z,13.39
2022-09-20T16:36:33.817Z,13.37
2022-09-20T16:38:57.586Z,13.43
2022-09-20T16:41:21.501Z,13.46
2022-09-20T16:43:46.347Z,13.39
2022-09-20T16:46:10.598Z,13.34
2022-09-20T16:48:34.143Z,13.25
2022-09-20T16:51:00.194Z,13.20
2022-09-20T16:53:23.766Z,13.28
2022-09-20T16:55:47.351Z,13.28
2022-09-20T16:58:11.563Z,13.26
2022-09-20T17:00:35.243Z,13.21
2022-09-20T17:02:58.870Z,13.24
2022-09-20T17:05:22.428Z,13.16
2022-09-20T17:07:47.378Z,13.18
2022-09-20T17:10:11.790Z,13.08
2022-09-20T17:12:41.495Z,13.06
2022-09-20T17:15:06.299Z,13.05
2022-09-20T17:17:29.798Z,13.06
2022-09-20T17:19:53.349Z,12.95
2022-09-20T17:22:17.440Z,12.70
2022-09-20T17:24:42.438Z,12.79
2022-09-20T17:27:07.023Z,12.70
2022-09-20T17:29:30.644Z,12.72
2022-09-20T17:31:58.858Z,12.64
2022-09-20T17:34:22.775Z,12.47
2022-09-20T17:36:47.498Z,12.41
2022-09-20T17:39:13.028Z,12.42
2022-09-20T17:41:38.518Z,12.30
2022-09-20T17:44:08.081Z,12.21
2022-09-20T17:46:32.661Z,12.21
2022-09-20T17:48:58.354Z,12.15
2022-09-20T17:51:22.303Z,12.10
2022-09-20T17:53:46.791Z,12.05
2022-09-20T17:56:13.197Z,11.92
2022-09-20T17:58:38.125Z,11.66
2022-09-20T18:01:12.449Z,11.81
2022-09-20T18:03:37.564Z,11.75
2022-09-20T18:06:01.168Z,11.66
2022-09-20T18:08:24.746Z,11.63
2022-09-20T18:10:58.603Z,11.61
2022-09-20T18:13:22.262Z,11.51
2022-09-20T18:15:47.770Z,11.47
2022-09-20T18:18:11.434Z,11.39
2022-09-20T18:20:34.954Z,11.29
2022-09-20T18:22:58.504Z,11.23
2022-09-20T18:25:24.021Z,11.17
2022-09-20T18:27:47.700Z,11.05
2022-09-20T18:30:12.503Z,11.02
2022-09-20T18:32:37.463Z,10.93
2022-09-20T18:35:01.535Z,10.64
2022-09-20T18:37:25.184Z,10.78
2022-09-20T18:39:49.547Z,10.70
2022-09-20T18:42:13.150Z,10.69
2022-09-20T18:44:37.014Z,10.64
2022-09-20T18:47:03.337Z,10.42
2022-09-20T18:49:29.123Z,10.61
2022-09-20T18:51:52.656Z,10.57
2022-09-20T18:54:16.754Z,10.59
2022-09-20T18:56:42.878Z,10.58
2022-09-20T18:59:09.172Z,10.51
2022-09-20T19:02:13.912Z,10.46
2022-09-20T19:05:11.964Z,10.33
2022-09-20T19:07:49.083Z,10.39
2022-09-20T19:10:21.238Z,10.36
2022-09-20T19:12:54.930Z,10.24
2022-09-20T19:15:47.084Z,10.22
2022-09-20T19:18:29.010Z,10.18
2022-09-20T19:21:00.584Z,10.07
2022-09-20T19:23:42.929Z,10.05
2022-09-20T19:26:14.937Z,10.05
2022-09-20T19:28:42.691Z,9.92
2022-09-20T19:31:07.242Z,9.90
2022-09-20T19:33:31.619Z,9.88
2022-09-20T19:35:59.155Z,9.90
2022-09-20T19:38:38.582Z,9.84
2022-09-20T19:41:20.914Z,9.77
2022-09-20T19:44:14.382Z,9.70
2022-09-20T19:46:53.190Z,9.66
2022-09-20T19:49:22.130Z,9.66
2022-09-20T19:51:47.726Z,9.65
2022-09-20T19:54:14.939Z,9.67
2022-09-20T19:56:48.584Z,9.55
2022-09-20T19:59:13.605Z,9.45
2022-09-20T20:01:37.984Z,9.46
2022-09-20T20:04:03.775Z,9.42
2022-09-20T20:06:33.483Z,9.34
2022-09-20T20:09:06.123Z,9.32
2022-09-20T20:11:40.922Z,9.15
2022-09-20T20:14:16.536Z,9.28
2022-09-20T20:16:56.312Z,9.20
2022-09-20T20:19:47.145Z,9.18
2022-09-20T20:22:23.828Z,9.07
2022-09-20T20:24:53.349Z,9.07
2022-09-20T20:27:16.910Z,8.95
2022-09-20T20:29:41.294Z,8.98
2022-09-20T20:32:04.954Z,8.93
2022-09-20T20:34:28.478Z,8.86
2022-09-20T20:36:52.583Z,8.84
2022-09-20T20:39:16.168Z,8.78
2022-09-20T20:41:41.656Z,8.78
2022-09-20T20:44:06.351Z,8.70
2022-09-20T20:46:33.130Z,8.82
2022-09-20T20:48:56.866Z,8.76
2022-09-20T20:51:23.049Z,8.71
2022-09-20T20:53:49.110Z,8.68
2022-09-20T20:56:16.332Z,8.64
2022-09-20T20:58:43.921Z,8.62
2022-09-20T21:01:11.125Z,8.59
2022-09-20T21:03:35.630Z,8.48
2022-09-20T21:05:59.442Z,8.49
2022-09-20T21:08:23.015Z,8.43
2022-09-20T21:10:46.578Z,8.39
2022-09-20T21:13:10.156Z,8.39
2022-09-20T21:15:35.113Z,8.35
2022-09-20T21:17:58.748Z,8.28
2022-09-20T21:20:22.611Z,8.15
2022-09-20T21:22:46.194Z,8.22
2022-09-20T21:25:10.451Z,8.16
2022-09-20T21:27:36.154Z,8.19
2022-09-20T21:30:00.476Z,8.15
2022-09-20T21:32:25.411Z,7.97
2022-09-20T21:34:49.019Z,7.98
2022-09-20T21:37:12.724Z,8.05
2022-09-20T21:39:36.345Z,8.04
2022-09-20T21:41:59.917Z,7.98
2022-09-20T21:44:23.500Z,7.91
2022-09-20T21:46:48.454Z,7.88
2022-09-20T21:49:14.422Z,7.91
2022-09-20T21:51:39.230Z,7.80
2022-09-20T21:54:04.634Z,7.69
2022-09-20T21:56:31.357Z,7.78
2022-09-20T21:58:55.357Z,7.75
2022-09-20T22:01:21.412Z,7.81
2022-09-20T22:03:47.335Z,7.80
2022-09-20T22:06:15.825Z,7.78
2022-09-20T22:08:42.125Z,7.72
2022-09-20T22:11:11.173Z,7.80
2022-09-20T22:13:42.353Z,7.75
2022-09-20T22:16:08.331Z,7.77
2022-09-20T22:18:38.573Z,7.73
2022-09-20T22:21:08.169Z,7.78
2022-09-20T22:23:33.327Z,7.60
2022-09-20T22:26:01.642Z,7.60
2022-09-20T22:28:25.155Z,7.64
2022-09-20T22:30:48.746Z,7.52
2022-09-20T22:33:12.299Z,7.56
2022-09-20T22:35:35.827Z,7.61
2022-09-20T22:37:59.365Z,7.54
2022-09-20T22:40:24.321Z,7.46
2022-09-20T22:42:47.883Z,7.41
2022-09-20T22:45:12.429Z,7.45
2022-09-20T22:47:36.066Z,7.44
2022-09-20T22:49:59.583Z,7.45
2022-09-20T22:52:23.154Z,7.37
2022-09-20T22:54:46.778Z,7.38
2022-09-20T22:57:11.739Z,7.29
2022-09-20T22:59:35.261Z,7.29
2022-09-20T23:01:59.041Z,7.24
2022-09-20T23:04:23.547Z,7.21
2022-09-20T23:06:49.349Z,7.22
2022-09-20T23:09:16.002Z,7.20
2022-09-20T23:11:42.143Z,7.20
2022-09-20T23:14:07.951Z,7.17
2022-09-20T23:16:33.537Z,7.11
2022-09-20T23:18:59.385Z,7.08
2022-09-20T23:21:23.551Z,6.99
2022-09-20T23:23:48.131Z,6.95
2022-09-20T23:26:15.234Z,6.98
2022-09-20T23:28:41.025Z,6.95
2022-09-20T23:31:08.406Z,6.98
2022-09-20T23:33:32.006Z,6.97
2022-09-20T23:35:56.027Z,6.98
2022-09-20T23:38:19.529Z,6.99
2022-09-20T23:40:43.433Z,6.92
2022-09-20T23:43:06.964Z,6.88
2022-09-20T23:45:30.549Z,6.89
2022-09-20T23:47:55.486Z,6.84
2022-09-20T23:50:18.991Z,6.80
2022-09-20T23:52:42.527Z,6.84
2022-09-20T23:55:07.110Z,6.74
2022-09-20T23:57:30.638Z,6.78
2022-09-20T23:59:54.175Z,6.73
